Weather History for Belmar-Farmingdale, NJ

Change the Weather History Date:

Tuesday, January 7, 2014

  Actual Average Record
Temperature  
Mean Temperature 9 °F -  
Max Temperature 15 °F 39 °F 66 °F (2008)
Min Temperature 3 °F 26 °F 3 °F (2014)
Degree Days  
Heating Degree Days 56    
Moisture  
Dew Point -13 °F    
Average Humidity 39    
Maximum Humidity 48    
Minimum Humidity 34    
Precipitation  
Precipitation 0.00 in - - ()
Sea Level Pressure  
Sea Level Pressure 30.17 in    
Wind  
Wind Speed 20 mph (West)    
Max Wind Speed 29 mph    
Max Gust Speed 41 mph    
Visibility 10 miles    
Events      
Averages and records for this station are not official NWS values.
T = Trace of Precipitation, MM = Missing Value Source: NWS Daily Summary

Daily Weather History Graph

Daily Weather History Graph

Search for Another Location

Airport:

Trip Planner

Search our weather history database for the weather conditions in past years. The results will help you decide how hot, cold, wet, or windy it might be!

Date:

Astronomy

Jan. 07, 2014 Rise Set
Actual Time 7:18 AM EST 4:46 PM EST
Civil Twilight 6:48 AM EST 5:17 PM EST
Nautical Twilight 6:14 AM EST 5:51 PM EST
Astronomical Twilight 5:42 AM EST 6:23 PM EST
Moon 11:05 AM EST (1/7) No Moon Set
Length of Visible Light 10h 28m
Length of Day
9h 27m
Waxing Crescent, 45% of the Moon is Illuminated
Jan 7
Waxing Crescent
Jan 7
First Quarter
Jan 15
Full
Jan 24
Last Quarter
Jan 30
New

Hourly Weather History & Observations

Time (EST) Temp. Windchill Dew Point Humidity Pressure Visibility Wind Dir Wind Speed Gust Speed Precip Events Conditions
12:15 AM 15.8 °F -2.3 °F -5.8 °F 38% 29.80 in 10.0 mi West 23.0 mph 31.1 mph N/A   Clear
12:35 AM 12.2 °F -8.2 °F -7.6 °F 41% 29.83 in 10.0 mi West 26.5 mph 41.4 mph N/A   Clear
12:55 AM 12.2 °F -8.2 °F -9.4 °F 38% 29.84 in 10.0 mi WNW 26.5 mph 38.0 mph N/A   Clear
1:15 AM 12.2 °F -7.9 °F -11.2 °F 34% 29.84 in 10.0 mi West 25.3 mph 34.5 mph N/A   Clear
1:35 AM 10.4 °F -8.2 °F -11.2 °F 37% 29.86 in 10.0 mi West 19.6 mph 34.5 mph N/A   Clear
1:55 AM 10.4 °F -9.5 °F -11.2 °F 37% 29.87 in 10.0 mi West 23.0 mph 39.1 mph N/A   Clear
2:15 AM 8.6 °F -12.7 °F - N/A% 29.90 in 10.0 mi WNW 25.3 mph 34.5 mph N/A   Clear
2:35 AM 8.6 °F -11.4 °F -13.0 °F 37% 29.91 in 10.0 mi WNW 21.9 mph 29.9 mph N/A   Clear
2:55 AM 8.6 °F -13.8 °F - N/A% 29.93 in 10.0 mi West 28.8 mph 41.4 mph N/A   Clear
3:15 AM 8.6 °F -10.0 °F -14.8 °F 34% 29.94 in 10.0 mi West 18.4 mph 32.2 mph N/A   Clear
3:35 AM 8.6 °F -11.4 °F -14.8 °F 34% 29.95 in 10.0 mi West 21.9 mph 32.2 mph N/A   Clear
3:55 AM 8.6 °F -9.5 °F -13.0 °F 37% 29.96 in 10.0 mi WNW 17.3 mph 28.8 mph N/A   Clear
4:15 AM 6.8 °F -12.4 °F -13.0 °F 40% 29.97 in 10.0 mi WNW 18.4 mph 36.8 mph N/A   Clear
4:35 AM 6.8 °F -14.3 °F -14.8 °F 37% 29.99 in 10.0 mi West 23.0 mph 41.4 mph N/A   Clear
4:55 AM 6.8 °F -13.4 °F -14.8 °F 37% 30.01 in 10.0 mi WNW 20.7 mph 39.1 mph N/A   Clear
5:15 AM 6.8 °F -14.3 °F -14.8 °F 37% 30.02 in 10.0 mi WNW 23.0 mph 32.2 mph N/A   Clear
5:35 AM 5.0 °F -17.1 °F -14.8 °F 40% 30.04 in 10.0 mi West 24.2 mph 40.3 mph N/A   Clear
5:55 AM 5.0 °F -16.7 °F -16.6 °F 36% 30.05 in 10.0 mi WNW 23.0 mph 31.1 mph N/A   Clear
6:15 AM 5.0 °F -15.7 °F -14.8 °F 40% 30.06 in 10.0 mi West 20.7 mph 27.6 mph N/A   Clear
6:35 AM 3.2 °F -17.1 °F -14.8 °F 43% 30.08 in 10.0 mi West 18.4 mph 33.4 mph N/A   Clear
6:55 AM 3.2 °F -18.1 °F -14.8 °F 43% 30.10 in 10.0 mi West 20.7 mph 27.6 mph N/A   Clear
7:15 AM 3.2 °F -16.5 °F -16.6 °F 39% 30.11 in 10.0 mi WNW 17.3 mph 31.1 mph N/A   Clear
7:35 AM 3.2 °F -18.6 °F -16.6 °F 39% 30.13 in 10.0 mi West 21.9 mph 32.2 mph N/A   Clear
7:55 AM 3.2 °F -16.5 °F -16.6 °F 39% 30.14 in 10.0 mi West 17.3 mph 31.1 mph N/A   Clear
8:15 AM 3.2 °F -18.6 °F -16.6 °F 39% 30.16 in 10.0 mi West 21.9 mph 31.1 mph N/A   Clear
8:35 AM 3.2 °F -18.1 °F -16.6 °F 39% 30.17 in 10.0 mi West 20.7 mph 35.7 mph N/A   Clear
8:55 AM 3.2 °F -18.6 °F -16.6 °F 39% 30.18 in 10.0 mi West 21.9 mph 38.0 mph N/A   Clear
9:15 AM 5.0 °F -15.7 °F -16.6 °F 36% 30.19 in 10.0 mi West 20.7 mph 32.2 mph N/A   Clear
9:35 AM 6.8 °F -13.4 °F -16.6 °F 34% 30.21 in 10.0 mi WNW 20.7 mph 34.5 mph N/A   Clear
9:55 AM 6.8 °F -15.5 °F -16.6 °F 34% 30.22 in 10.0 mi West 26.5 mph 33.4 mph N/A   Clear
10:15 AM 6.8 °F -13.4 °F -16.6 °F 34% 30.23 in 10.0 mi WNW 20.7 mph 25.3 mph N/A   Clear
10:35 AM 6.8 °F -13.4 °F -14.8 °F 37% 30.23 in 10.0 mi WNW 20.7 mph 28.8 mph N/A   Clear
10:55 AM 8.6 °F -11.0 °F -14.8 °F 34% 30.22 in 10.0 mi West 20.7 mph 26.5 mph N/A   Clear
11:15 AM 8.6 °F -10.5 °F -14.8 °F 34% 30.21 in 10.0 mi West 19.6 mph 29.9 mph N/A   Clear
11:35 AM 8.6 °F -11.0 °F -14.8 °F 34% 30.19 in 10.0 mi WNW 20.7 mph 28.8 mph N/A   Clear
11:55 AM 8.6 °F -12.3 °F -14.8 °F 34% 30.19 in 10.0 mi WNW 24.2 mph 32.2 mph N/A   Clear
12:15 PM 8.6 °F -8.9 °F -14.8 °F 34% 30.19 in 10.0 mi West 16.1 mph 29.9 mph N/A   Clear
12:35 PM 8.6 °F -11.4 °F -13.0 °F 37% 30.19 in 10.0 mi WNW 21.9 mph 32.2 mph N/A   Clear
12:55 PM 10.4 °F -6.6 °F - N/A% 30.19 in 10.0 mi WNW 16.1 mph 24.2 mph N/A   Clear
1:15 PM 10.4 °F -6.0 °F - N/A% 30.19 in 10.0 mi West 15.0 mph 29.9 mph N/A   Clear
1:35 PM 8.6 °F -11.4 °F - N/A% 30.20 in 10.0 mi West 21.9 mph 28.8 mph N/A   Clear
1:55 PM 10.4 °F -7.7 °F -13.0 °F 34% 30.22 in 10.0 mi West 18.4 mph 27.6 mph N/A   Clear
2:15 PM 10.4 °F -8.6 °F -13.0 °F 34% 30.22 in 10.0 mi West 20.7 mph 28.8 mph N/A   Clear
2:35 PM 10.4 °F -8.6 °F - N/A% 30.22 in 10.0 mi West 20.7 mph 25.3 mph N/A   Clear
2:55 PM 10.4 °F -8.6 °F -13.0 °F 34% 30.22 in 10.0 mi West 20.7 mph 31.1 mph N/A   Clear
3:15 PM 10.4 °F -9.9 °F - N/A% 30.23 in 10.0 mi West 24.2 mph 33.4 mph N/A   Clear
3:35 PM 10.4 °F -8.2 °F -13.0 °F 34% 30.23 in 10.0 mi West 19.6 mph 28.8 mph N/A   Clear
3:55 PM 8.6 °F -8.9 °F - N/A% 30.24 in 10.0 mi West 16.1 mph 26.5 mph N/A   Clear
4:15 PM 8.6 °F -8.3 °F -11.2 °F 40% 30.24 in 10.0 mi West 15.0 mph 23.0 mph N/A   Clear
4:35 PM 8.6 °F -6.3 °F -11.2 °F 40% 30.25 in 10.0 mi West 11.5 mph 20.7 mph N/A   Clear
4:55 PM 8.6 °F -7.0 °F -11.2 °F 40% 30.26 in 10.0 mi West 12.7 mph 19.6 mph N/A   Clear
5:15 PM 8.6 °F -7.0 °F -11.2 °F 40% 30.27 in 10.0 mi WNW 12.7 mph - N/A   Clear
5:35 PM 8.6 °F -6.3 °F -11.2 °F 40% 30.27 in 10.0 mi West 11.5 mph 18.4 mph N/A   Clear
5:55 PM 8.6 °F -7.7 °F -11.2 °F 40% 30.28 in 10.0 mi West 13.8 mph 24.2 mph N/A   Clear
6:15 PM 8.6 °F -7.0 °F -11.2 °F 40% 30.28 in 10.0 mi West 12.7 mph 20.7 mph N/A   Clear
6:35 PM 8.6 °F -4.7 °F -11.2 °F 40% 30.29 in 10.0 mi West 9.2 mph 21.9 mph N/A   Clear
6:55 PM 8.6 °F -6.3 °F -11.2 °F 40% 30.29 in 10.0 mi West 11.5 mph 20.7 mph N/A   Clear
7:15 PM 8.6 °F -6.3 °F -11.2 °F 40% 30.31 in 10.0 mi West 11.5 mph - N/A   Clear
7:35 PM 8.6 °F -4.7 °F -9.4 °F 44% 30.32 in 10.0 mi West 9.2 mph - N/A   Clear
7:55 PM 8.6 °F -6.3 °F -9.4 °F 44% 30.33 in 10.0 mi West 11.5 mph - N/A   Clear
8:15 PM 8.6 °F -5.5 °F -9.4 °F 44% 30.33 in 10.0 mi West 10.4 mph 16.1 mph N/A   Clear
8:35 PM 8.6 °F -6.3 °F -9.4 °F 44% 30.33 in 10.0 mi West 11.5 mph 18.4 mph N/A   Clear
8:55 PM 10.4 °F -4.8 °F -9.4 °F 41% 30.35 in 10.0 mi West 12.7 mph 17.3 mph N/A   Clear
9:15 PM 10.4 °F -2.4 °F -9.4 °F 41% 30.36 in 10.0 mi West 9.2 mph - N/A   Clear
9:35 PM 10.4 °F -4.1 °F -9.4 °F 41% 30.37 in 10.0 mi West 11.5 mph 16.1 mph N/A   Clear
9:55 PM 8.6 °F -4.7 °F -9.4 °F 44% 30.37 in 10.0 mi West 9.2 mph - N/A   Clear
10:15 PM 8.6 °F -2.6 °F -7.6 °F 48% 30.38 in 10.0 mi West 6.9 mph - N/A   Clear
10:35 PM 8.6 °F -4.7 °F -9.4 °F 44% 30.38 in 10.0 mi West 9.2 mph - N/A   Clear
10:55 PM 10.4 °F -3.3 °F -7.6 °F 44% 30.38 in 10.0 mi West 10.4 mph 16.1 mph N/A   Clear
11:15 PM 10.4 °F -3.3 °F -9.4 °F 41% 30.38 in 10.0 mi West 10.4 mph - N/A   Clear
11:35 PM 10.4 °F -1.5 °F -7.6 °F 44% 30.39 in 10.0 mi West 8.1 mph - N/A   Clear
11:55 PM 10.4 °F -3.3 °F -7.6 °F 44% 30.39 in 10.0 mi West 10.4 mph 17.3 mph N/A   Clear